createdAt,value
2022-08-26T00:04:12.201Z,100.00
2022-08-26T00:09:16.149Z,100.00
2022-08-26T00:14:18.805Z,100.00
2022-08-26T00:19:21.140Z,100.00
2022-08-26T00:24:23.650Z,100.00
2022-08-26T00:29:25.866Z,100.00
2022-08-26T00:34:28.663Z,100.00
2022-08-26T00:39:31.667Z,100.00
2022-08-26T00:44:34.307Z,100.00
2022-08-26T00:49:43.568Z,100.00
2022-08-26T00:55:06.949Z,100.00
2022-08-26T01:00:14.507Z,100.00
2022-08-26T01:05:18.367Z,100.00
2022-08-26T01:10:26.343Z,100.00
2022-08-26T01:15:37.478Z,100.00
2022-08-26T01:21:24.760Z,100.00
2022-08-26T01:26:34.780Z,100.00
2022-08-26T01:31:45.540Z,100.00
2022-08-26T01:36:56.711Z,100.00
2022-08-26T01:42:03.233Z,100.00
2022-08-26T01:47:06.853Z,100.00
2022-08-26T01:52:11.562Z,100.00
2022-08-26T01:57:19.014Z,100.00
2022-08-26T02:02:21.411Z,100.00
2022-08-26T02:07:26.826Z,100.00
2022-08-26T02:12:30.705Z,100.00
2022-08-26T02:17:45.845Z,100.00
2022-08-26T02:22:48.377Z,100.00
2022-08-26T02:27:51.643Z,100.00
2022-08-26T02:32:53.871Z,100.00
2022-08-26T02:37:56.624Z,100.00
2022-08-26T02:43:00.174Z,100.00
2022-08-26T02:48:15.593Z,100.00
2022-08-26T02:53:24.485Z,100.00
2022-08-26T02:58:27.358Z,100.00
2022-08-26T03:03:29.572Z,100.00
2022-08-26T03:08:32.663Z,100.00
2022-08-26T03:13:34.824Z,100.00
2022-08-26T03:18:37.260Z,100.00
2022-08-26T03:23:41.985Z,100.00
2022-08-26T03:28:44.911Z,100.00
2022-08-26T03:33:47.062Z,100.00
2022-08-26T03:38:51.721Z,100.00
2022-08-26T03:43:55.014Z,100.00
2022-08-26T03:49:01.339Z,100.00
2022-08-26T03:54:04.120Z,100.00
2022-08-26T03:59:07.681Z,100.00
2022-08-26T04:04:09.786Z,100.00
2022-08-26T04:09:20.889Z,100.00
2022-08-26T04:14:25.536Z,100.00
2022-08-26T04:19:27.706Z,100.00
2022-08-26T04:24:29.901Z,100.00
2022-08-26T04:29:32.356Z,100.00
2022-08-26T04:34:36.364Z,100.00
2022-08-26T04:39:38.539Z,100.00
2022-08-26T04:44:40.730Z,100.00
2022-08-26T04:49:42.918Z,100.00
2022-08-26T04:54:45.098Z,100.00
2022-08-26T04:59:47.568Z,100.00
2022-08-26T05:04:51.948Z,100.00
2022-08-26T05:09:54.142Z,100.00
2022-08-26T05:14:56.812Z,100.00
2022-08-26T05:19:59.635Z,100.00
2022-08-26T05:25:02.037Z,100.00
2022-08-26T05:30:04.562Z,100.00
2022-08-26T05:35:08.996Z,100.00
2022-08-26T05:40:11.806Z,100.00
2022-08-26T05:45:13.946Z,100.00
2022-08-26T05:50:16.216Z,100.00
2022-08-26T05:55:18.733Z,100.00
2022-08-26T06:00:20.895Z,100.00
2022-08-26T06:05:23.142Z,100.00
2022-08-26T06:10:33.134Z,100.00
2022-08-26T06:15:42.021Z,100.00
2022-08-26T06:20:49.529Z,100.00
2022-08-26T06:26:00.463Z,100.00
2022-08-26T06:31:03.595Z,100.00
2022-08-26T06:36:06.674Z,100.00
2022-08-26T06:41:09.125Z,100.00
2022-08-26T06:46:13.563Z,100.00
2022-08-26T06:51:23.680Z,100.00
2022-08-26T06:56:29.326Z,100.00
2022-08-26T07:01:35.558Z,100.00
2022-08-26T07:06:40.082Z,100.00
2022-08-26T07:11:42.273Z,100.00
2022-08-26T07:16:44.610Z,100.00
2022-08-26T07:21:46.872Z,100.00
2022-08-26T07:26:51.551Z,100.00
2022-08-26T07:31:53.904Z,100.00
2022-08-26T07:36:59.031Z,100.00
2022-08-26T07:42:07.535Z,100.00
2022-08-26T07:47:25.115Z,100.00
2022-08-26T07:52:30.219Z,100.00
2022-08-26T07:57:32.919Z,100.00
2022-08-26T08:02:37.077Z,100.00
2022-08-26T08:07:44.865Z,100.00
2022-08-26T08:12:48.425Z,100.00
2022-08-26T08:17:54.710Z,100.00
2022-08-26T08:23:03.469Z,100.00
2022-08-26T08:28:05.748Z,100.00
2022-08-26T08:33:41.237Z,100.00
2022-08-26T08:38:44.954Z,100.00
2022-08-26T08:43:47.605Z,100.00
2022-08-26T08:48:55.805Z,100.00
2022-08-26T08:53:59.157Z,100.00
2022-08-26T08:59:20.745Z,100.00
2022-08-26T09:04:23.526Z,100.00
2022-08-26T09:09:31.985Z,100.00
2022-08-26T09:14:34.055Z,100.00
2022-08-26T09:19:40.178Z,100.00
2022-08-26T09:24:48.491Z,100.00
2022-08-26T09:29:51.357Z,100.00
2022-08-26T09:35:00.976Z,100.00
2022-08-26T09:40:17.056Z,100.00
2022-08-26T09:45:28.097Z,100.00
2022-08-26T09:50:52.959Z,100.00
2022-08-26T09:56:25.847Z,100.00
2022-08-26T10:01:42.045Z,100.00
2022-08-26T10:07:03.420Z,100.00
2022-08-26T10:12:16.484Z,100.00
2022-08-26T10:17:40.619Z,100.00
2022-08-26T10:22:52.574Z,100.00
2022-08-26T10:28:03.396Z,100.00
2022-08-26T10:33:09.541Z,100.00
2022-08-26T10:38:15.893Z,100.00
2022-08-26T10:43:35.860Z,100.00
2022-08-26T10:48:49.382Z,99.42
2022-08-26T10:54:01.614Z,98.95
2022-08-26T10:59:17.522Z,100.00
2022-08-26T11:04:25.586Z,99.95
2022-08-26T11:09:46.487Z,98.61
2022-08-26T11:14:58.482Z,95.03
2022-08-26T11:20:03.948Z,92.27
2022-08-26T11:25:13.577Z,95.87
2022-08-26T11:30:15.663Z,98.39
2022-08-26T11:35:20.537Z,100.00
2022-08-26T11:40:31.868Z,100.00
2022-08-26T11:45:36.049Z,100.00
2022-08-26T11:50:39.497Z,96.71
2022-08-26T11:55:42.793Z,95.88
2022-08-26T12:00:54.760Z,95.34
2022-08-26T12:05:58.192Z,94.14
2022-08-26T12:11:05.802Z,93.95
2022-08-26T12:16:09.076Z,95.89
2022-08-26T12:21:21.506Z,96.98
2022-08-26T12:26:30.447Z,96.96
2022-08-26T12:31:41.339Z,97.35
2022-08-26T12:36:52.047Z,95.61
2022-08-26T12:41:55.994Z,96.29
2022-08-26T12:47:04.203Z,98.15
2022-08-26T12:52:19.331Z,99.14
2022-08-26T12:57:30.647Z,100.00
2022-08-26T13:02:37.581Z,100.00
2022-08-26T13:07:39.749Z,100.00
2022-08-26T13:12:41.893Z,100.00
2022-08-26T13:17:44.065Z,97.78
2022-08-26T13:22:46.114Z,97.46
2022-08-26T13:27:55.966Z,98.78
2022-08-26T13:33:00.411Z,98.11
2022-08-26T13:38:04.567Z,98.78
2022-08-26T13:43:10.392Z,97.98
2022-08-26T13:48:12.598Z,98.41
2022-08-26T13:53:16.652Z,100.00
2022-08-26T13:58:18.814Z,100.00
2022-08-26T14:03:21.267Z,100.00
2022-08-26T14:08:23.590Z,100.00
2022-08-26T14:13:25.760Z,100.00
2022-08-26T14:18:35.499Z,100.00
2022-08-26T14:23:40.617Z,100.00
2022-08-26T14:28:42.793Z,100.00
2022-08-26T14:33:45.318Z,100.00
2022-08-26T14:38:47.319Z,100.00
2022-08-26T14:43:54.075Z,100.00
2022-08-26T14:49:01.047Z,100.00
2022-08-26T14:54:04.333Z,100.00
2022-08-26T14:59:06.591Z,100.00
2022-08-26T15:04:08.787Z,100.00
2022-08-26T15:09:11.409Z,100.00
2022-08-26T15:14:18.932Z,100.00
2022-08-26T15:19:23.828Z,100.00
2022-08-26T15:24:26.811Z,100.00
2022-08-26T15:29:29.003Z,100.00
2022-08-26T15:34:31.394Z,100.00
2022-08-26T15:39:34.423Z,100.00
2022-08-26T15:44:36.683Z,100.00
2022-08-26T15:49:40.192Z,100.00
2022-08-26T15:54:42.376Z,100.00
2022-08-26T15:59:45.587Z,100.00
2022-08-26T16:04:47.763Z,100.00
2022-08-26T16:09:52.028Z,100.00
2022-08-26T16:14:56.397Z,100.00
2022-08-26T16:19:58.675Z,100.00
2022-08-26T16:25:00.839Z,100.00
2022-08-26T16:30:06.963Z,100.00
2022-08-26T16:35:09.167Z,100.00
2022-08-26T16:40:11.611Z,100.00
2022-08-26T16:45:14.100Z,100.00
2022-08-26T16:50:18.562Z,100.00
2022-08-26T16:55:22.394Z,100.00
2022-08-26T17:00:27.671Z,100.00
2022-08-26T17:05:29.989Z,100.00
2022-08-26T17:10:32.909Z,100.00
2022-08-26T17:15:35.230Z,100.00
2022-08-26T17:20:37.507Z,100.00
2022-08-26T17:25:40.268Z,100.00
2022-08-26T17:30:42.805Z,100.00
2022-08-26T17:35:45.054Z,100.00
2022-08-26T17:40:47.403Z,100.00
2022-08-26T17:45:49.789Z,100.00
2022-08-26T17:50:52.464Z,100.00
2022-08-26T17:55:54.653Z,100.00
2022-08-26T18:00:56.808Z,100.00
2022-08-26T18:05:59.016Z,100.00
2022-08-26T18:11:01.228Z,100.00
2022-08-26T18:16:06.488Z,100.00
2022-08-26T18:21:15.959Z,100.00
2022-08-26T18:26:26.750Z,100.00
2022-08-26T18:31:29.994Z,100.00
2022-08-26T18:36:36.855Z,100.00
2022-08-26T18:41:51.233Z,100.00
2022-08-26T18:46:53.463Z,100.00
2022-08-26T18:51:55.620Z,100.00
2022-08-26T18:56:57.911Z,100.00
2022-08-26T19:02:00.251Z,100.00
2022-08-26T19:07:02.677Z,100.00
2022-08-26T19:12:05.369Z,100.00
2022-08-26T19:17:07.896Z,100.00
2022-08-26T19:22:10.094Z,100.00
2022-08-26T19:27:14.871Z,100.00
2022-08-26T19:32:17.286Z,100.00
2022-08-26T19:37:21.408Z,100.00
2022-08-26T19:42:23.561Z,100.00
2022-08-26T19:47:25.801Z,100.00
2022-08-26T19:52:30.174Z,100.00
2022-08-26T19:57:33.520Z,100.00
2022-08-26T20:02:35.812Z,100.00
2022-08-26T20:07:38.096Z,100.00
2022-08-26T20:12:41.153Z,100.00
2022-08-26T20:17:43.193Z,100.00
2022-08-26T20:22:45.276Z,100.00
2022-08-26T20:27:47.686Z,100.00
2022-08-26T20:32:49.864Z,100.00
2022-08-26T20:37:51.989Z,100.00
2022-08-26T20:42:54.231Z,100.00
2022-08-26T20:47:56.443Z,100.00
2022-08-26T20:52:59.161Z,100.00
2022-08-26T20:58:01.412Z,100.00
2022-08-26T21:03:03.647Z,100.00
2022-08-26T21:08:05.877Z,100.00
2022-08-26T21:13:08.261Z,100.00
2022-08-26T21:18:11.523Z,100.00
2022-08-26T21:23:13.917Z,100.00
2022-08-26T21:28:16.351Z,100.00
2022-08-26T21:33:18.591Z,100.00
2022-08-26T21:38:21.691Z,100.00
2022-08-26T21:43:35.220Z,100.00
2022-08-26T21:48:39.171Z,100.00
2022-08-26T21:53:41.381Z,100.00
2022-08-26T21:58:43.657Z,100.00
2022-08-26T22:03:47.243Z,100.00
2022-08-26T22:08:50.437Z,100.00
2022-08-26T22:13:52.733Z,100.00
2022-08-26T22:18:54.931Z,100.00
2022-08-26T22:23:58.665Z,100.00
2022-08-26T22:29:02.017Z,100.00
2022-08-26T22:34:09.220Z,100.00
2022-08-26T22:39:13.178Z,100.00
2022-08-26T22:44:16.894Z,100.00
2022-08-26T22:49:19.066Z,100.00
2022-08-26T22:54:21.235Z,100.00
2022-08-26T22:59:23.371Z,100.00
2022-08-26T23:04:25.574Z,100.00
2022-08-26T23:09:27.692Z,100.00
2022-08-26T23:14:32.091Z,100.00
2022-08-26T23:19:34.261Z,100.00
2022-08-26T23:24:36.388Z,100.00
2022-08-26T23:29:38.545Z,100.00
2022-08-26T23:34:40.698Z,100.00
2022-08-26T23:39:43.620Z,100.00
2022-08-26T23:44:45.827Z,100.00
2022-08-26T23:49:47.972Z,100.00
2022-08-26T23:54:50.345Z,100.00
2022-08-26T23:59:52.856Z,100.00
